sensor_id;sensor_type;location;lat;lon;timestamp;P1;durP1;ratioP1;P2;durP2;ratioP2
23506;SDS011;11930;53.076;18.250;2023-11-19T00:00:56;32.10;;;15.07;;
23506;SDS011;11930;53.076;18.250;2023-11-19T00:03:42;33.00;;;13.93;;
23506;SDS011;11930;53.076;18.250;2023-11-19T00:06:09;32.57;;;14.57;;
23506;SDS011;11930;53.076;18.250;2023-11-19T00:08:37;29.73;;;13.37;;
23506;SDS011;11930;53.076;18.250;2023-11-19T00:11:03;34.00;;;14.00;;
23506;SDS011;11930;53.076;18.250;2023-11-19T00:13:29;26.37;;;12.23;;
23506;SDS011;11930;53.076;18.250;2023-11-19T00:15:55;25.57;;;12.13;;
23506;SDS011;11930;53.076;18.250;2023-11-19T00:18:22;23.47;;;11.63;;
23506;SDS011;11930;53.076;18.250;2023-11-19T00:20:48;24.30;;;11.43;;
23506;SDS011;11930;53.076;18.250;2023-11-19T00:23:14;31.37;;;14.60;;
23506;SDS011;11930;53.076;18.250;2023-11-19T00:25:40;35.50;;;16.93;;
23506;SDS011;11930;53.076;18.250;2023-11-19T00:28:06;32.50;;;15.07;;
23506;SDS011;11930;53.076;18.250;2023-11-19T00:30:32;29.37;;;13.70;;
23506;SDS011;11930;53.076;18.250;2023-11-19T00:32:59;32.80;;;14.50;;
23506;SDS011;11930;53.076;18.250;2023-11-19T00:35:25;33.90;;;15.07;;
23506;SDS011;11930;53.076;18.250;2023-11-19T00:37:52;30.37;;;14.63;;
23506;SDS011;11930;53.076;18.250;2023-11-19T00:40:20;33.87;;;15.57;;
23506;SDS011;11930;53.076;18.250;2023-11-19T00:42:49;35.57;;;16.43;;
23506;SDS011;11930;53.076;18.250;2023-11-19T00:45:15;30.43;;;14.40;;
23506;SDS011;11930;53.076;18.250;2023-11-19T00:47:42;31.33;;;14.70;;
23506;SDS011;11930;53.076;18.250;2023-11-19T00:50:08;32.57;;;13.90;;
23506;SDS011;11930;53.076;18.250;2023-11-19T00:52:38;27.37;;;12.60;;
23506;SDS011;11930;53.076;18.250;2023-11-19T00:55:04;28.67;;;13.83;;
23506;SDS011;11930;53.076;18.250;2023-11-19T00:57:32;28.57;;;13.23;;
23506;SDS011;11930;53.076;18.250;2023-11-19T00:59:58;29.23;;;14.27;;
23506;SDS011;11930;53.076;18.250;2023-11-19T01:02:25;29.23;;;13.87;;
23506;SDS011;11930;53.076;18.250;2023-11-19T01:04:51;26.73;;;13.97;;
23506;SDS011;11930;53.076;18.250;2023-11-19T01:07:17;30.17;;;14.57;;
23506;SDS011;11930;53.076;18.250;2023-11-19T01:09:43;28.10;;;13.83;;
23506;SDS011;11930;53.076;18.250;2023-11-19T01:12:10;33.43;;;14.63;;
23506;SDS011;11930;53.076;18.250;2023-11-19T01:14:36;33.17;;;14.63;;
23506;SDS011;11930;53.076;18.250;2023-11-19T01:17:02;31.27;;;15.33;;
23506;SDS011;11930;53.076;18.250;2023-11-19T01:19:30;31.80;;;15.40;;
23506;SDS011;11930;53.076;18.250;2023-11-19T01:21:56;31.03;;;14.90;;
23506;SDS011;11930;53.076;18.250;2023-11-19T01:24:22;31.67;;;15.03;;
23506;SDS011;11930;53.076;18.250;2023-11-19T01:26:48;30.47;;;15.53;;
23506;SDS011;11930;53.076;18.250;2023-11-19T01:29:14;34.07;;;14.97;;
23506;SDS011;11930;53.076;18.250;2023-11-19T01:31:45;37.10;;;16.33;;
23506;SDS011;11930;53.076;18.250;2023-11-19T01:34:16;35.50;;;15.63;;
23506;SDS011;11930;53.076;18.250;2023-11-19T01:36:42;33.53;;;15.57;;
23506;SDS011;11930;53.076;18.250;2023-11-19T01:39:08;31.53;;;15.87;;
23506;SDS011;11930;53.076;18.250;2023-11-19T01:41:35;34.13;;;15.63;;
23506;SDS011;11930;53.076;18.250;2023-11-19T01:44:01;36.63;;;15.80;;
23506;SDS011;11930;53.076;18.250;2023-11-19T01:46:28;32.57;;;15.40;;
23506;SDS011;11930;53.076;18.250;2023-11-19T01:48:55;35.43;;;15.87;;
23506;SDS011;11930;53.076;18.250;2023-11-19T01:51:21;32.80;;;14.70;;
23506;SDS011;11930;53.076;18.250;2023-11-19T01:53:48;34.67;;;16.20;;
23506;SDS011;11930;53.076;18.250;2023-11-19T01:56:15;35.60;;;16.20;;
23506;SDS011;11930;53.076;18.250;2023-11-19T01:58:41;35.65;;;15.80;;
23506;SDS011;11930;53.076;18.250;2023-11-19T02:01:11;35.87;;;16.43;;
23506;SDS011;11930;53.076;18.250;2023-11-19T02:03:38;36.47;;;16.70;;
23506;SDS011;11930;53.076;18.250;2023-11-19T02:06:04;34.00;;;16.57;;
23506;SDS011;11930;53.076;18.250;2023-11-19T02:08:31;33.53;;;16.77;;
23506;SDS011;11930;53.076;18.250;2023-11-19T02:10:57;38.27;;;17.53;;
23506;SDS011;11930;53.076;18.250;2023-11-19T02:13:24;39.50;;;16.93;;
23506;SDS011;11930;53.076;18.250;2023-11-19T02:15:51;41.23;;;19.03;;
23506;SDS011;11930;53.076;18.250;2023-11-19T02:18:18;36.73;;;17.90;;
23506;SDS011;11930;53.076;18.250;2023-11-19T02:20:45;38.67;;;17.83;;
23506;SDS011;11930;53.076;18.250;2023-11-19T02:23:12;41.37;;;17.30;;
23506;SDS011;11930;53.076;18.250;2023-11-19T02:25:39;39.93;;;17.63;;
23506;SDS011;11930;53.076;18.250;2023-11-19T02:28:06;36.93;;;17.37;;
23506;SDS011;11930;53.076;18.250;2023-11-19T02:30:33;41.97;;;17.87;;
23506;SDS011;11930;53.076;18.250;2023-11-19T02:32:59;42.37;;;18.27;;
23506;SDS011;11930;53.076;18.250;2023-11-19T02:35:31;39.07;;;16.83;;
23506;SDS011;11930;53.076;18.250;2023-11-19T02:37:58;37.67;;;17.40;;
23506;SDS011;11930;53.076;18.250;2023-11-19T02:40:29;39.87;;;16.43;;
23506;SDS011;11930;53.076;18.250;2023-11-19T02:42:55;37.87;;;17.67;;
23506;SDS011;11930;53.076;18.250;2023-11-19T02:45:24;39.83;;;18.90;;
23506;SDS011;11930;53.076;18.250;2023-11-19T02:47:51;37.77;;;18.10;;
23506;SDS011;11930;53.076;18.250;2023-11-19T02:50:18;38.03;;;17.87;;
23506;SDS011;11930;53.076;18.250;2023-11-19T02:52:51;36.53;;;17.70;;
23506;SDS011;11930;53.076;18.250;2023-11-19T02:55:19;40.83;;;18.00;;
23506;SDS011;11930;53.076;18.250;2023-11-19T02:57:45;36.83;;;16.90;;
23506;SDS011;11930;53.076;18.250;2023-11-19T03:00:15;36.43;;;16.70;;
23506;SDS011;11930;53.076;18.250;2023-11-19T03:02:42;40.73;;;17.73;;
23506;SDS011;11930;53.076;18.250;2023-11-19T03:05:13;39.83;;;17.00;;
23506;SDS011;11930;53.076;18.250;2023-11-19T03:07:41;37.07;;;17.67;;
23506;SDS011;11930;53.076;18.250;2023-11-19T03:10:12;41.97;;;17.67;;
23506;SDS011;11930;53.076;18.250;2023-11-19T03:12:41;37.63;;;17.47;;
23506;SDS011;11930;53.076;18.250;2023-11-19T03:15:08;44.70;;;18.33;;
23506;SDS011;11930;53.076;18.250;2023-11-19T03:17:36;41.57;;;17.90;;
23506;SDS011;11930;53.076;18.250;2023-11-19T03:20:07;39.27;;;17.37;;
23506;SDS011;11930;53.076;18.250;2023-11-19T03:22:38;37.53;;;17.07;;
23506;SDS011;11930;53.076;18.250;2023-11-19T03:25:05;37.10;;;17.70;;
23506;SDS011;11930;53.076;18.250;2023-11-19T03:27:34;37.43;;;16.67;;
23506;SDS011;11930;53.076;18.250;2023-11-19T03:30:02;42.10;;;17.07;;
23506;SDS011;11930;53.076;18.250;2023-11-19T03:32:30;34.67;;;17.60;;
23506;SDS011;11930;53.076;18.250;2023-11-19T03:34:57;36.30;;;17.23;;
23506;SDS011;11930;53.076;18.250;2023-11-19T03:37:25;36.63;;;16.03;;
23506;SDS011;11930;53.076;18.250;2023-11-19T03:39:53;41.40;;;16.97;;
23506;SDS011;11930;53.076;18.250;2023-11-19T03:42:20;35.80;;;16.57;;
23506;SDS011;11930;53.076;18.250;2023-11-19T03:44:47;33.60;;;16.07;;
23506;SDS011;11930;53.076;18.250;2023-11-19T03:47:15;32.30;;;15.93;;
23506;SDS011;11930;53.076;18.250;2023-11-19T03:49:42;35.60;;;15.97;;
23506;SDS011;11930;53.076;18.250;2023-11-19T03:52:08;31.77;;;15.67;;
23506;SDS011;11930;53.076;18.250;2023-11-19T03:54:35;38.23;;;16.57;;
23506;SDS011;11930;53.076;18.250;2023-11-19T03:57:01;36.77;;;16.43;;
23506;SDS011;11930;53.076;18.250;2023-11-19T03:59:29;38.17;;;16.13;;
23506;SDS011;11930;53.076;18.250;2023-11-19T04:01:55;34.90;;;15.97;;
23506;SDS011;11930;53.076;18.250;2023-11-19T04:04:22;35.83;;;15.93;;
23506;SDS011;11930;53.076;18.250;2023-11-19T04:06:48;34.43;;;15.80;;
23506;SDS011;11930;53.076;18.250;2023-11-19T04:09:14;35.20;;;16.53;;
23506;SDS011;11930;53.076;18.250;2023-11-19T04:11:40;41.93;;;17.47;;
23506;SDS011;11930;53.076;18.250;2023-11-19T04:14:06;35.83;;;17.00;;
23506;SDS011;11930;53.076;18.250;2023-11-19T04:16:32;37.30;;;16.87;;
23506;SDS011;11930;53.076;18.250;2023-11-19T04:18:58;37.40;;;16.67;;
23506;SDS011;11930;53.076;18.250;2023-11-19T04:21:24;34.87;;;15.80;;
23506;SDS011;11930;53.076;18.250;2023-11-19T04:23:51;35.93;;;16.47;;
23506;SDS011;11930;53.076;18.250;2023-11-19T04:26:17;35.13;;;16.30;;
23506;SDS011;11930;53.076;18.250;2023-11-19T04:28:43;38.83;;;16.87;;
23506;SDS011;11930;53.076;18.250;2023-11-19T04:31:09;34.63;;;16.17;;
23506;SDS011;11930;53.076;18.250;2023-11-19T04:33:35;33.60;;;15.47;;
23506;SDS011;11930;53.076;18.250;2023-11-19T04:36:01;41.90;;;17.00;;
23506;SDS011;11930;53.076;18.250;2023-11-19T04:38:28;36.87;;;17.07;;
23506;SDS011;11930;53.076;18.250;2023-11-19T04:40:54;37.37;;;16.90;;
23506;SDS011;11930;53.076;18.250;2023-11-19T04:43:22;39.00;;;16.73;;
23506;SDS011;11930;53.076;18.250;2023-11-19T04:45:48;38.57;;;17.20;;
23506;SDS011;11930;53.076;18.250;2023-11-19T04:48:15;38.07;;;17.10;;
23506;SDS011;11930;53.076;18.250;2023-11-19T04:50:40;36.37;;;16.73;;
23506;SDS011;11930;53.076;18.250;2023-11-19T04:53:07;33.27;;;15.50;;
23506;SDS011;11930;53.076;18.250;2023-11-19T04:55:32;37.27;;;16.00;;
23506;SDS011;11930;53.076;18.250;2023-11-19T04:57:59;33.20;;;16.23;;
23506;SDS011;11930;53.076;18.250;2023-11-19T05:00:24;36.07;;;16.17;;
23506;SDS011;11930;53.076;18.250;2023-11-19T05:02:51;31.47;;;15.87;;
23506;SDS011;11930;53.076;18.250;2023-11-19T05:05:17;36.90;;;17.47;;
23506;SDS011;11930;53.076;18.250;2023-11-19T05:07:44;35.20;;;15.93;;
23506;SDS011;11930;53.076;18.250;2023-11-19T05:10:09;30.40;;;14.47;;
23506;SDS011;11930;53.076;18.250;2023-11-19T05:12:36;34.23;;;15.20;;
23506;SDS011;11930;53.076;18.250;2023-11-19T05:15:01;35.30;;;15.30;;
23506;SDS011;11930;53.076;18.250;2023-11-19T05:17:28;35.20;;;16.07;;
23506;SDS011;11930;53.076;18.250;2023-11-19T05:19:54;32.63;;;14.57;;
23506;SDS011;11930;53.076;18.250;2023-11-19T05:22:20;32.43;;;15.20;;
23506;SDS011;11930;53.076;18.250;2023-11-19T05:24:47;33.93;;;14.93;;
23506;SDS011;11930;53.076;18.250;2023-11-19T05:27:15;26.50;;;12.97;;
23506;SDS011;11930;53.076;18.250;2023-11-19T05:29:40;32.63;;;14.10;;
23506;SDS011;11930;53.076;18.250;2023-11-19T05:32:08;31.07;;;13.77;;
23506;SDS011;11930;53.076;18.250;2023-11-19T05:34:34;32.93;;;14.87;;
23506;SDS011;11930;53.076;18.250;2023-11-19T05:37:00;29.60;;;14.07;;
23506;SDS011;11930;53.076;18.250;2023-11-19T05:39:27;26.63;;;13.70;;
23506;SDS011;11930;53.076;18.250;2023-11-19T05:41:53;29.23;;;14.40;;
23506;SDS011;11930;53.076;18.250;2023-11-19T05:44:19;29.40;;;14.67;;
23506;SDS011;11930;53.076;18.250;2023-11-19T05:46:45;28.90;;;13.50;;
23506;SDS011;11930;53.076;18.250;2023-11-19T05:49:11;30.87;;;13.90;;
23506;SDS011;11930;53.076;18.250;2023-11-19T05:51:39;30.07;;;13.07;;
23506;SDS011;11930;53.076;18.250;2023-11-19T05:54:08;25.93;;;12.60;;
23506;SDS011;11930;53.076;18.250;2023-11-19T05:56:35;28.33;;;13.33;;
23506;SDS011;11930;53.076;18.250;2023-11-19T05:59:02;25.53;;;12.93;;
23506;SDS011;11930;53.076;18.250;2023-11-19T06:01:34;24.30;;;12.13;;
23506;SDS011;11930;53.076;18.250;2023-11-19T06:04:00;23.40;;;12.33;;
23506;SDS011;11930;53.076;18.250;2023-11-19T06:06:26;24.17;;;12.47;;
23506;SDS011;11930;53.076;18.250;2023-11-19T06:08:54;25.43;;;12.57;;
23506;SDS011;11930;53.076;18.250;2023-11-19T06:11:20;22.93;;;10.97;;
23506;SDS011;11930;53.076;18.250;2023-11-19T06:13:46;23.63;;;12.03;;
23506;SDS011;11930;53.076;18.250;2023-11-19T06:16:13;21.47;;;11.30;;
23506;SDS011;11930;53.076;18.250;2023-11-19T06:18:39;25.07;;;11.60;;
23506;SDS011;11930;53.076;18.250;2023-11-19T06:21:06;23.23;;;11.47;;
23506;SDS011;11930;53.076;18.250;2023-11-19T06:23:32;26.47;;;11.83;;
23506;SDS011;11930;53.076;18.250;2023-11-19T06:25:58;21.97;;;11.47;;
23506;SDS011;11930;53.076;18.250;2023-11-19T06:28:24;25.40;;;11.20;;
23506;SDS011;11930;53.076;18.250;2023-11-19T06:30:50;24.47;;;11.90;;
23506;SDS011;11930;53.076;18.250;2023-11-19T06:33:16;21.97;;;10.63;;
23506;SDS011;11930;53.076;18.250;2023-11-19T06:35:42;21.50;;;10.63;;
23506;SDS011;11930;53.076;18.250;2023-11-19T06:38:09;22.80;;;11.20;;
23506;SDS011;11930;53.076;18.250;2023-11-19T06:40:35;21.23;;;9.90;;
23506;SDS011;11930;53.076;18.250;2023-11-19T06:43:01;23.00;;;11.73;;
23506;SDS011;11930;53.076;18.250;2023-11-19T06:45:33;21.57;;;10.60;;
23506;SDS011;11930;53.076;18.250;2023-11-19T06:48:05;21.80;;;10.47;;
23506;SDS011;11930;53.076;18.250;2023-11-19T06:50:32;22.77;;;10.47;;
23506;SDS011;11930;53.076;18.250;2023-11-19T06:52:59;20.63;;;9.70;;
23506;SDS011;11930;53.076;18.250;2023-11-19T06:55:26;19.53;;;10.23;;
23506;SDS011;11930;53.076;18.250;2023-11-19T06:57:52;20.67;;;10.37;;
23506;SDS011;11930;53.076;18.250;2023-11-19T07:00:18;20.67;;;10.90;;
23506;SDS011;11930;53.076;18.250;2023-11-19T07:02:44;21.00;;;10.67;;
23506;SDS011;11930;53.076;18.250;2023-11-19T07:05:10;21.03;;;10.43;;
23506;SDS011;11930;53.076;18.250;2023-11-19T07:07:38;22.50;;;10.40;;
23506;SDS011;11930;53.076;18.250;2023-11-19T07:10:05;21.63;;;11.07;;
23506;SDS011;11930;53.076;18.250;2023-11-19T07:12:34;24.00;;;11.83;;
23506;SDS011;11930;53.076;18.250;2023-11-19T07:15:01;22.17;;;10.67;;
23506;SDS011;11930;53.076;18.250;2023-11-19T07:17:30;24.70;;;10.63;;
23506;SDS011;11930;53.076;18.250;2023-11-19T07:19:56;19.73;;;9.77;;
23506;SDS011;11930;53.076;18.250;2023-11-19T07:22:25;22.97;;;11.10;;
23506;SDS011;11930;53.076;18.250;2023-11-19T07:24:51;23.07;;;10.50;;
23506;SDS011;11930;53.076;18.250;2023-11-19T07:27:19;21.57;;;10.63;;
23506;SDS011;11930;53.076;18.250;2023-11-19T07:29:44;19.57;;;10.00;;
23506;SDS011;11930;53.076;18.250;2023-11-19T07:32:11;20.07;;;9.53;;
23506;SDS011;11930;53.076;18.250;2023-11-19T07:34:38;19.03;;;10.00;;
23506;SDS011;11930;53.076;18.250;2023-11-19T07:37:05;22.10;;;9.77;;
23506;SDS011;11930;53.076;18.250;2023-11-19T07:39:31;20.07;;;9.93;;
23506;SDS011;11930;53.076;18.250;2023-11-19T07:41:58;24.93;;;11.63;;
23506;SDS011;11930;53.076;18.250;2023-11-19T07:44:24;25.80;;;12.37;;
23506;SDS011;11930;53.076;18.250;2023-11-19T07:46:51;23.67;;;11.13;;
23506;SDS011;11930;53.076;18.250;2023-11-19T07:49:17;20.93;;;10.57;;
23506;SDS011;11930;53.076;18.250;2023-11-19T07:51:43;23.70;;;11.33;;
23506;SDS011;11930;53.076;18.250;2023-11-19T07:54:09;21.37;;;10.40;;
23506;SDS011;11930;53.076;18.250;2023-11-19T07:56:35;23.67;;;11.07;;
23506;SDS011;11930;53.076;18.250;2023-11-19T07:59:02;20.70;;;10.00;;
23506;SDS011;11930;53.076;18.250;2023-11-19T08:01:28;21.47;;;10.93;;
23506;SDS011;11930;53.076;18.250;2023-11-19T08:03:54;21.77;;;10.10;;
23506;SDS011;11930;53.076;18.250;2023-11-19T08:06:21;24.97;;;11.70;;
23506;SDS011;11930;53.076;18.250;2023-11-19T08:08:47;23.63;;;11.47;;
23506;SDS011;11930;53.076;18.250;2023-11-19T08:11:13;24.30;;;11.70;;
23506;SDS011;11930;53.076;18.250;2023-11-19T08:13:40;24.77;;;10.53;;
23506;SDS011;11930;53.076;18.250;2023-11-19T08:16:09;19.80;;;10.17;;
23506;SDS011;11930;53.076;18.250;2023-11-19T08:18:35;22.27;;;10.73;;
23506;SDS011;11930;53.076;18.250;2023-11-19T08:21:01;21.90;;;10.37;;
23506;SDS011;11930;53.076;18.250;2023-11-19T08:23:30;24.83;;;11.30;;
23506;SDS011;11930;53.076;18.250;2023-11-19T08:25:56;23.77;;;11.50;;
23506;SDS011;11930;53.076;18.250;2023-11-19T08:28:22;25.63;;;11.53;;
23506;SDS011;11930;53.076;18.250;2023-11-19T08:30:48;20.50;;;10.43;;
23506;SDS011;11930;53.076;18.250;2023-11-19T08:33:14;21.97;;;10.67;;
23506;SDS011;11930;53.076;18.250;2023-11-19T08:35:40;21.53;;;11.23;;
23506;SDS011;11930;53.076;18.250;2023-11-19T08:38:06;21.17;;;10.50;;
23506;SDS011;11930;53.076;18.250;2023-11-19T08:40:32;27.07;;;12.57;;
23506;SDS011;11930;53.076;18.250;2023-11-19T08:42:58;25.00;;;10.50;;
23506;SDS011;11930;53.076;18.250;2023-11-19T08:45:25;27.13;;;12.67;;
23506;SDS011;11930;53.076;18.250;2023-11-19T08:47:51;24.30;;;12.13;;
23506;SDS011;11930;53.076;18.250;2023-11-19T08:50:17;24.10;;;11.90;;
23506;SDS011;11930;53.076;18.250;2023-11-19T08:52:43;23.33;;;11.50;;
23506;SDS011;11930;53.076;18.250;2023-11-19T08:55:12;24.27;;;12.13;;
23506;SDS011;11930;53.076;18.250;2023-11-19T08:57:38;23.07;;;12.03;;
23506;SDS011;11930;53.076;18.250;2023-11-19T09:00:05;22.77;;;11.93;;
23506;SDS011;11930;53.076;18.250;2023-11-19T09:02:37;23.37;;;11.23;;
23506;SDS011;11930;53.076;18.250;2023-11-19T09:05:04;26.80;;;13.37;;
23506;SDS011;11930;53.076;18.250;2023-11-19T09:07:32;26.27;;;13.10;;
23506;SDS011;11930;53.076;18.250;2023-11-19T09:09:58;27.20;;;12.90;;
23506;SDS011;11930;53.076;18.250;2023-11-19T09:12:24;27.03;;;13.33;;
23506;SDS011;11930;53.076;18.250;2023-11-19T09:14:51;26.40;;;13.07;;
23506;SDS011;11930;53.076;18.250;2023-11-19T09:17:16;24.80;;;12.17;;
23506;SDS011;11930;53.076;18.250;2023-11-19T09:19:44;29.13;;;13.63;;
23506;SDS011;11930;53.076;18.250;2023-11-19T09:22:10;24.33;;;12.00;;
23506;SDS011;11930;53.076;18.250;2023-11-19T09:24:36;29.80;;;13.50;;
23506;SDS011;11930;53.076;18.250;2023-11-19T09:27:02;27.37;;;13.00;;
23506;SDS011;11930;53.076;18.250;2023-11-19T09:29:28;30.70;;;13.43;;
23506;SDS011;11930;53.076;18.250;2023-11-19T09:31:57;28.10;;;13.00;;
23506;SDS011;11930;53.076;18.250;2023-11-19T09:34:23;30.60;;;14.20;;
23506;SDS011;11930;53.076;18.250;2023-11-19T09:36:49;29.03;;;14.23;;
23506;SDS011;11930;53.076;18.250;2023-11-19T09:39:15;29.80;;;12.47;;
23506;SDS011;11930;53.076;18.250;2023-11-19T09:41:43;29.27;;;13.20;;
23506;SDS011;11930;53.076;18.250;2023-11-19T09:44:13;26.43;;;12.47;;
23506;SDS011;11930;53.076;18.250;2023-11-19T09:46:40;30.20;;;13.63;;
23506;SDS011;11930;53.076;18.250;2023-11-19T09:49:08;32.17;;;15.10;;
23506;SDS011;11930;53.076;18.250;2023-11-19T09:51:37;28.03;;;12.97;;
23506;SDS011;11930;53.076;18.250;2023-11-19T09:54:04;31.23;;;14.13;;
23506;SDS011;11930;53.076;18.250;2023-11-19T09:56:30;29.03;;;13.43;;
23506;SDS011;11930;53.076;18.250;2023-11-19T09:58:57;27.33;;;11.30;;
23506;SDS011;11930;53.076;18.250;2023-11-19T10:01:24;33.03;;;14.20;;
23506;SDS011;11930;53.076;18.250;2023-11-19T10:03:50;32.27;;;15.60;;
23506;SDS011;11930;53.076;18.250;2023-11-19T10:06:20;46.70;;;19.77;;
23506;SDS011;11930;53.076;18.250;2023-11-19T10:08:47;35.93;;;15.70;;
23506;SDS011;11930;53.076;18.250;2023-11-19T10:11:13;33.37;;;15.87;;
23506;SDS011;11930;53.076;18.250;2023-11-19T10:13:40;31.80;;;15.03;;
23506;SDS011;11930;53.076;18.250;2023-11-19T10:16:08;32.70;;;15.47;;
23506;SDS011;11930;53.076;18.250;2023-11-19T10:18:37;33.80;;;14.10;;
23506;SDS011;11930;53.076;18.250;2023-11-19T10:21:04;32.70;;;15.30;;
23506;SDS011;11930;53.076;18.250;2023-11-19T10:23:31;26.87;;;11.90;;
23506;SDS011;11930;53.076;18.250;2023-11-19T10:26:28;30.57;;;14.23;;
23506;SDS011;11930;53.076;18.250;2023-11-19T10:28:55;32.53;;;14.83;;
23506;SDS011;11930;53.076;18.250;2023-11-19T10:31:21;31.57;;;14.63;;
23506;SDS011;11930;53.076;18.250;2023-11-19T10:33:51;34.63;;;15.60;;
23506;SDS011;11930;53.076;18.250;2023-11-19T10:36:17;30.93;;;14.20;;
23506;SDS011;11930;53.076;18.250;2023-11-19T10:38:52;34.73;;;15.23;;
23506;SDS011;11930;53.076;18.250;2023-11-19T10:41:28;34.03;;;13.43;;
23506;SDS011;11930;53.076;18.250;2023-11-19T10:43:58;31.07;;;14.37;;
23506;SDS011;11930;53.076;18.250;2023-11-19T10:46:37;33.77;;;15.20;;
23506;SDS011;11930;53.076;18.250;2023-11-19T10:49:05;33.33;;;15.17;;
23506;SDS011;11930;53.076;18.250;2023-11-19T10:51:34;37.73;;;16.33;;
23506;SDS011;11930;53.076;18.250;2023-11-19T10:54:04;34.20;;;16.40;;
23506;SDS011;11930;53.076;18.250;2023-11-19T10:56:35;33.30;;;14.60;;
23506;SDS011;11930;53.076;18.250;2023-11-19T10:59:01;32.03;;;14.60;;
23506;SDS011;11930;53.076;18.250;2023-11-19T11:01:42;32.17;;;15.97;;
23506;SDS011;11930;53.076;18.250;2023-11-19T11:04:12;36.13;;;17.17;;
23506;SDS011;11930;53.076;18.250;2023-11-19T11:06:40;36.57;;;17.00;;
23506;SDS011;11930;53.076;18.250;2023-11-19T11:09:07;35.30;;;16.70;;
23506;SDS011;11930;53.076;18.250;2023-11-19T11:11:37;36.47;;;16.77;;
23506;SDS011;11930;53.076;18.250;2023-11-19T11:14:06;37.13;;;16.20;;
23506;SDS011;11930;53.076;18.250;2023-11-19T11:16:33;38.43;;;16.80;;
23506;SDS011;11930;53.076;18.250;2023-11-19T11:19:01;42.23;;;18.20;;
23506;SDS011;11930;53.076;18.250;2023-11-19T11:21:28;46.17;;;18.23;;
23506;SDS011;11930;53.076;18.250;2023-11-19T11:32:17;36.40;;;16.17;;
23506;SDS011;11930;53.076;18.250;2023-11-19T11:37:53;36.93;;;16.43;;
23506;SDS011;11930;53.076;18.250;2023-11-19T11:40:32;42.20;;;18.07;;
23506;SDS011;11930;53.076;18.250;2023-11-19T11:42:58;39.27;;;18.87;;
23506;SDS011;11930;53.076;18.250;2023-11-19T11:45:37;39.33;;;16.90;;
23506;SDS011;11930;53.076;18.250;2023-11-19T11:50:47;37.03;;;15.67;;
23506;SDS011;11930;53.076;18.250;2023-11-19T11:53:17;40.87;;;18.90;;
23506;SDS011;11930;53.076;18.250;2023-11-19T11:58:19;40.73;;;18.20;;
23506;SDS011;11930;53.076;18.250;2023-11-19T12:00:47;42.53;;;17.50;;
23506;SDS011;11930;53.076;18.250;2023-11-19T12:03:13;42.30;;;19.17;;
23506;SDS011;11930;53.076;18.250;2023-11-19T12:05:41;39.20;;;16.47;;
23506;SDS011;11930;53.076;18.250;2023-11-19T12:08:09;45.47;;;18.47;;
23506;SDS011;11930;53.076;18.250;2023-11-19T12:10:43;36.67;;;17.47;;
23506;SDS011;11930;53.076;18.250;2023-11-19T12:13:10;39.40;;;17.43;;
23506;SDS011;11930;53.076;18.250;2023-11-19T12:18:30;36.87;;;16.20;;
23506;SDS011;11930;53.076;18.250;2023-11-19T12:20:58;42.13;;;18.67;;
23506;SDS011;11930;53.076;18.250;2023-11-19T12:23:30;44.47;;;18.67;;
23506;SDS011;11930;53.076;18.250;2023-11-19T12:25:58;41.53;;;19.23;;
23506;SDS011;11930;53.076;18.250;2023-11-19T12:28:24;51.90;;;19.33;;
23506;SDS011;11930;53.076;18.250;2023-11-19T12:30:53;55.70;;;19.77;;
23506;SDS011;11930;53.076;18.250;2023-11-19T12:33:20;40.70;;;17.87;;
23506;SDS011;11930;53.076;18.250;2023-11-19T12:35:47;37.73;;;18.10;;
23506;SDS011;11930;53.076;18.250;2023-11-19T12:38:23;40.60;;;17.10;;
23506;SDS011;11930;53.076;18.250;2023-11-19T12:41:06;35.80;;;17.13;;
23506;SDS011;11930;53.076;18.250;2023-11-19T12:43:33;34.27;;;16.60;;
23506;SDS011;11930;53.076;18.250;2023-11-19T12:46:00;36.57;;;16.70;;
23506;SDS011;11930;53.076;18.250;2023-11-19T12:48:26;41.17;;;17.83;;
23506;SDS011;11930;53.076;18.250;2023-11-19T12:53:23;43.63;;;18.20;;
23506;SDS011;11930;53.076;18.250;2023-11-19T12:55:51;35.47;;;15.90;;
23506;SDS011;11930;53.076;18.250;2023-11-19T12:58:34;39.93;;;17.90;;
23506;SDS011;11930;53.076;18.250;2023-11-19T13:01:05;37.87;;;17.03;;
23506;SDS011;11930;53.076;18.250;2023-11-19T13:03:35;37.37;;;17.03;;
23506;SDS011;11930;53.076;18.250;2023-11-19T13:06:05;40.93;;;17.40;;
23506;SDS011;11930;53.076;18.250;2023-11-19T13:08:47;37.73;;;16.43;;
23506;SDS011;11930;53.076;18.250;2023-11-19T13:11:19;35.57;;;16.10;;
23506;SDS011;11930;53.076;18.250;2023-11-19T13:13:59;32.87;;;15.43;;
23506;SDS011;11930;53.076;18.250;2023-11-19T13:16:27;30.30;;;14.67;;
23506;SDS011;11930;53.076;18.250;2023-11-19T13:18:53;30.03;;;14.13;;
23506;SDS011;11930;53.076;18.250;2023-11-19T13:21:20;32.53;;;13.70;;
23506;SDS011;11930;53.076;18.250;2023-11-19T13:23:46;29.33;;;13.47;;
23506;SDS011;11930;53.076;18.250;2023-11-19T13:26:12;32.27;;;14.23;;
23506;SDS011;11930;53.076;18.250;2023-11-19T13:28:38;32.03;;;14.60;;
23506;SDS011;11930;53.076;18.250;2023-11-19T13:31:05;31.50;;;13.63;;
23506;SDS011;11930;53.076;18.250;2023-11-19T13:33:35;33.00;;;15.47;;
23506;SDS011;11930;53.076;18.250;2023-11-19T13:36:02;29.80;;;14.27;;
23506;SDS011;11930;53.076;18.250;2023-11-19T13:38:33;27.87;;;13.10;;
23506;SDS011;11930;53.076;18.250;2023-11-19T13:41:03;27.53;;;12.90;;
23506;SDS011;11930;53.076;18.250;2023-11-19T13:43:30;26.80;;;13.63;;
23506;SDS011;11930;53.076;18.250;2023-11-19T13:45:56;27.77;;;12.77;;
23506;SDS011;11930;53.076;18.250;2023-11-19T13:48:23;30.10;;;13.23;;
23506;SDS011;11930;53.076;18.250;2023-11-19T13:50:50;30.00;;;13.30;;
23506;SDS011;11930;53.076;18.250;2023-11-19T13:53:16;31.40;;;13.33;;
23506;SDS011;11930;53.076;18.250;2023-11-19T13:55:42;30.33;;;13.07;;
23506;SDS011;11930;53.076;18.250;2023-11-19T13:58:09;29.43;;;13.67;;
23506;SDS011;11930;53.076;18.250;2023-11-19T14:00:36;30.13;;;13.97;;
23506;SDS011;11930;53.076;18.250;2023-11-19T14:03:03;28.53;;;11.80;;
23506;SDS011;11930;53.076;18.250;2023-11-19T14:05:29;27.67;;;12.37;;
23506;SDS011;11930;53.076;18.250;2023-11-19T14:07:55;30.00;;;12.90;;
23506;SDS011;11930;53.076;18.250;2023-11-19T14:10:22;26.07;;;12.13;;
23506;SDS011;11930;53.076;18.250;2023-11-19T14:12:48;26.40;;;12.27;;
23506;SDS011;11930;53.076;18.250;2023-11-19T14:15:17;26.43;;;11.93;;
23506;SDS011;11930;53.076;18.250;2023-11-19T14:17:43;26.33;;;12.43;;
23506;SDS011;11930;53.076;18.250;2023-11-19T14:20:10;24.00;;;11.30;;
23506;SDS011;11930;53.076;18.250;2023-11-19T14:22:40;25.80;;;12.27;;
23506;SDS011;11930;53.076;18.250;2023-11-19T14:25:11;26.80;;;11.43;;
23506;SDS011;11930;53.076;18.250;2023-11-19T14:27:37;22.63;;;11.20;;
23506;SDS011;11930;53.076;18.250;2023-11-19T14:30:05;23.27;;;10.07;;
23506;SDS011;11930;53.076;18.250;2023-11-19T14:32:31;27.53;;;12.07;;